Time;durP1;ratioP1;P1;durP2;ratioP2;P2;SDS_P1;SDS_P2;PMS_P1;PMS_P2;Temp;Humidity;BMP_temperature;BMP_pressure;BME280_temperature;BME280_humidity;BME280_pressure;Samples;Min_cycle;Max_cycle;Signal;HPM_P1;HPM_P2
2023/05/26 00:00:40;;;;;;;32.17;9.75;;;;;;;;;;5087831;28;20032;-69
2023/05/26 00:03:06;;;;;;;25.65;10.48;;;;;;;;;;5061684;28;20892;-68
2023/05/26 00:05:32;;;;;;;23.10;9.60;;;;;;;;;;5054726;28;20086;-68
2023/05/26 00:07:57;;;;;;;32.50;9.32;;;;;;;;;;5063557;28;20954;-68
2023/05/26 00:10:24;;;;;;;28.02;9.07;;;;;;;;;;5063309;28;21118;-67
2023/05/26 00:12:49;;;;;;;20.45;9.10;;;;;;;;;;5063652;28;20055;-67
2023/05/26 00:15:14;;;;;;;35.05;9.88;;;;;;;;;;5064168;28;20065;-68
2023/05/26 00:17:40;;;;;;;28.67;8.63;;;;;;;;;;5066934;28;20122;-68
2023/05/26 00:20:07;;;;;;;25.55;9.73;;;;;;;;;;5065474;28;20896;-68
2023/05/26 00:22:32;;;;;;;21.45;9.50;;;;;;;;;;5053075;28;20029;-68
2023/05/26 00:24:58;;;;;;;22.80;8.82;;;;;;;;;;5066559;28;20909;-67
2023/05/26 00:27:23;;;;;;;24.77;9.55;;;;;;;;;;5066318;28;20892;-67
2023/05/26 00:29:48;;;;;;;19.40;8.20;;;;;;;;;;5063864;28;20081;-68
2023/05/26 00:32:14;;;;;;;31.85;9.85;;;;;;;;;;5070084;28;20024;-69
2023/05/26 00:34:39;;;;;;;36.75;10.43;;;;;;;;;;5082190;28;20042;-68
2023/05/26 00:37:04;;;;;;;21.05;9.15;;;;;;;;;;5096948;28;20031;-68
2023/05/26 00:39:30;;;;;;;23.13;9.07;;;;;;;;;;5067253;28;20027;-68
2023/05/26 00:41:55;;;;;;;41.03;10.15;;;;;;;;;;5070687;28;20140;-68
2023/05/26 00:44:21;;;;;;;34.85;9.50;;;;;;;;;;5073790;28;21038;-68
2023/05/26 00:46:47;;;;;;;24.42;9.25;;;;;;;;;;5061734;28;20019;-68
2023/05/26 00:49:12;;;;;;;21.05;7.85;;;;;;;;;;5066356;28;20890;-68
2023/05/26 00:51:37;;;;;;;32.38;9.15;;;;;;;;;;5064621;28;20131;-68
2023/05/26 00:54:03;;;;;;;18.90;8.85;;;;;;;;;;5057789;28;20027;-68
2023/05/26 00:56:31;;;;;;;24.77;8.52;;;;;;;;;;5061273;28;20031;-68
2023/05/26 00:58:57;;;;;;;23.15;9.35;;;;;;;;;;5079378;28;20051;-68
2023/05/26 01:01:23;;;;;;;22.95;8.85;;;;;;;;;;5065560;28;20083;-69
2023/05/26 01:03:49;;;;;;;26.02;10.57;;;;;;;;;;5094276;28;20438;-68
2023/05/26 01:06:15;;;;;;;29.23;10.30;;;;;;;;;;5097533;28;20027;-69
2023/05/26 01:08:40;;;;;;;24.67;9.48;;;;;;;;;;5059747;28;20807;-69
2023/05/26 01:11:12;;;;;;;25.63;10.30;;;;;;;;;;5064837;28;20024;-69
2023/05/26 01:13:50;;;;;;;25.55;9.95;;;;;;;;;;5060877;28;20023;-69
2023/05/26 01:16:17;;;;;;;25.90;9.80;;;;;;;;;;5111184;28;20015;-68
2023/05/26 01:18:48;;;;;;;25.95;10.50;;;;;;;;;;5087705;28;20027;-68
2023/05/26 01:21:13;;;;;;;23.75;8.98;;;;;;;;;;5089054;28;20126;-68
2023/05/26 01:23:47;;;;;;;28.38;10.35;;;;;;;;;;5100497;28;21000;-68
2023/05/26 01:26:12;;;;;;;18.67;8.25;;;;;;;;;;5064653;28;20019;-68
2023/05/26 01:28:41;;;;;;;21.73;9.33;;;;;;;;;;5053397;28;20051;-68
2023/05/26 01:31:06;;;;;;;26.73;10.48;;;;;;;;;;5061748;28;20265;-69
2023/05/26 01:33:33;;;;;;;25.35;9.45;;;;;;;;;;5087226;28;20020;-69
2023/05/26 01:35:58;;;;;;;25.40;9.40;;;;;;;;;;5070030;28;20069;-68
2023/05/26 01:38:23;;;;;;;21.75;9.00;;;;;;;;;;5062765;28;20844;-68
2023/05/26 01:40:53;;;;;;;30.73;10.40;;;;;;;;;;5074330;28;20280;-68
2023/05/26 01:43:37;;;;;;;23.10;10.60;;;;;;;;;;5065137;28;20210;-68
2023/05/26 01:46:20;;;;;;;29.17;9.52;;;;;;;;;;5058626;28;20124;-67
2023/05/26 01:48:47;;;;;;;23.93;9.67;;;;;;;;;;5038231;28;20841;-67
2023/05/26 01:51:16;;;;;;;24.95;8.90;;;;;;;;;;5081702;28;20037;-68
2023/05/26 01:53:42;;;;;;;21.75;9.23;;;;;;;;;;5080371;28;20531;-68
2023/05/26 01:56:07;;;;;;;28.85;9.95;;;;;;;;;;5101581;28;20018;-68
2023/05/26 01:58:33;;;;;;;30.70;8.75;;;;;;;;;;5095724;28;20020;-68
2023/05/26 02:00:59;;;;;;;22.05;9.02;;;;;;;;;;5075229;28;20028;-69
2023/05/26 02:03:24;;;;;;;26.25;9.75;;;;;;;;;;5064736;28;20132;-69
2023/05/26 02:05:49;;;;;;;24.60;8.50;;;;;;;;;;5064298;28;20076;-68
2023/05/26 02:08:15;;;;;;;30.95;8.27;;;;;;;;;;5064687;28;20162;-68
2023/05/26 02:10:40;;;;;;;21.38;9.65;;;;;;;;;;5064273;28;20019;-68
2023/05/26 02:13:06;;;;;;;29.73;9.02;;;;;;;;;;5064033;28;20020;-69
2023/05/26 02:15:31;;;;;;;28.35;9.43;;;;;;;;;;5063879;28;20943;-68
2023/05/26 02:17:57;;;;;;;28.77;10.02;;;;;;;;;;5064409;28;20061;-68
2023/05/26 02:20:25;;;;;;;34.90;10.88;;;;;;;;;;5067892;28;20027;-68
2023/05/26 02:22:51;;;;;;;24.65;10.20;;;;;;;;;;5084769;28;20040;-69
2023/05/26 02:25:16;;;;;;;21.88;9.88;;;;;;;;;;5055562;28;20027;-68
2023/05/26 02:27:41;;;;;;;23.35;9.82;;;;;;;;;;5065832;28;20802;-67
2023/05/26 02:30:07;;;;;;;30.80;9.30;;;;;;;;;;5075704;28;20020;-68
2023/05/26 02:32:34;;;;;;;36.28;9.95;;;;;;;;;;5065845;28;20031;-67
2023/05/26 02:35:00;;;;;;;23.55;8.75;;;;;;;;;;5054452;28;20020;-69
2023/05/26 02:37:26;;;;;;;21.40;8.27;;;;;;;;;;5062723;28;20059;-68
2023/05/26 02:39:52;;;;;;;22.48;8.73;;;;;;;;;;5055578;28;20016;-69
2023/05/26 02:42:17;;;;;;;27.30;10.55;;;;;;;;;;5064213;28;20714;-69
2023/05/26 02:44:42;;;;;;;24.48;10.10;;;;;;;;;;5062320;28;20055;-68
2023/05/26 02:47:08;;;;;;;30.05;9.32;;;;;;;;;;5066904;28;20905;-68
2023/05/26 02:49:33;;;;;;;30.10;9.63;;;;;;;;;;5101010;28;20436;-68
2023/05/26 02:51:58;;;;;;;24.15;9.43;;;;;;;;;;5057947;28;20042;-68
2023/05/26 02:54:24;;;;;;;20.17;9.18;;;;;;;;;;5060045;28;20027;-67
2023/05/26 02:56:49;;;;;;;33.97;9.75;;;;;;;;;;5058952;28;20519;-68
2023/05/26 02:59:15;;;;;;;29.90;10.25;;;;;;;;;;5063043;28;20051;-68
2023/05/26 03:01:40;;;;;;;29.67;9.20;;;;;;;;;;5060150;28;20984;-68
2023/05/26 03:04:05;;;;;;;28.33;9.65;;;;;;;;;;5059922;28;20866;-67
2023/05/26 03:06:32;;;;;;;35.03;9.98;;;;;;;;;;5076170;28;20024;-68
2023/05/26 03:08:57;;;;;;;33.15;10.48;;;;;;;;;;5103617;28;20069;-67
2023/05/26 03:11:22;;;;;;;20.85;9.18;;;;;;;;;;5077743;28;20028;-68
2023/05/26 03:13:48;;;;;;;38.47;9.80;;;;;;;;;;5058678;28;20046;-68
2023/05/26 03:16:14;;;;;;;31.52;10.82;;;;;;;;;;5064006;28;20814;-68
2023/05/26 03:18:39;;;;;;;18.35;8.88;;;;;;;;;;5065668;28;20027;-67
2023/05/26 03:21:06;;;;;;;28.88;9.40;;;;;;;;;;5050811;28;20864;-67
2023/05/26 03:23:31;;;;;;;26.85;9.30;;;;;;;;;;5068202;28;20019;-67
2023/05/26 03:25:56;;;;;;;23.63;9.52;;;;;;;;;;5064779;28;20032;-67
2023/05/26 03:28:22;;;;;;;27.55;9.45;;;;;;;;;;5052130;28;20053;-68
2023/05/26 03:30:47;;;;;;;31.45;11.15;;;;;;;;;;5063613;28;20066;-68
2023/05/26 03:33:12;;;;;;;30.60;9.05;;;;;;;;;;5064697;28;20040;-67
2023/05/26 03:35:37;;;;;;;37.90;9.95;;;;;;;;;;5068432;28;20024;-67
2023/05/26 03:38:02;;;;;;;27.35;10.85;;;;;;;;;;5081500;28;20442;-67
2023/05/26 03:40:28;;;;;;;27.15;10.75;;;;;;;;;;5096430;28;20032;-67
2023/05/26 03:42:53;;;;;;;21.83;10.30;;;;;;;;;;5063397;28;20876;-67
2023/05/26 03:45:18;;;;;;;32.97;11.02;;;;;;;;;;5066601;28;20116;-67
2023/05/26 03:47:44;;;;;;;25.17;10.73;;;;;;;;;;5061533;28;20055;-68
2023/05/26 03:50:09;;;;;;;23.67;10.10;;;;;;;;;;5046415;28;20037;-67
2023/05/26 03:52:35;;;;;;;30.75;9.82;;;;;;;;;;5068078;28;20147;-68
2023/05/26 03:55:01;;;;;;;33.25;10.65;;;;;;;;;;5068868;28;20023;-68
2023/05/26 03:57:26;;;;;;;38.00;10.57;;;;;;;;;;5064092;28;20036;-67
2023/05/26 03:59:51;;;;;;;21.50;9.95;;;;;;;;;;5052289;28;20031;-67
2023/05/26 04:02:17;;;;;;;26.20;9.95;;;;;;;;;;5099482;28;20039;-67
2023/05/26 04:04:42;;;;;;;35.75;10.25;;;;;;;;;;5104840;28;20115;-68
2023/05/26 04:07:07;;;;;;;37.65;10.73;;;;;;;;;;5107312;28;20023;-67
2023/05/26 04:09:32;;;;;;;30.83;10.65;;;;;;;;;;5078305;28;20024;-68
2023/05/26 04:11:58;;;;;;;28.23;10.30;;;;;;;;;;5063247;28;20233;-66
2023/05/26 04:14:23;;;;;;;25.20;10.95;;;;;;;;;;5065943;28;20869;-67
2023/05/26 04:16:48;;;;;;;24.30;10.77;;;;;;;;;;5104927;28;20119;-67
2023/05/26 04:19:14;;;;;;;35.55;10.00;;;;;;;;;;5075123;28;20042;-67
2023/05/26 04:21:39;;;;;;;38.53;10.52;;;;;;;;;;5099162;28;20039;-67
2023/05/26 04:24:05;;;;;;;35.90;10.52;;;;;;;;;;5082389;28;20070;-67
2023/05/26 04:26:33;;;;;;;28.75;10.52;;;;;;;;;;5068233;28;20047;-67
2023/05/26 04:28:59;;;;;;;27.00;10.50;;;;;;;;;;5068560;28;20091;-67
2023/05/26 04:31:24;;;;;;;21.50;9.75;;;;;;;;;;5069527;28;20081;-68
2023/05/26 04:33:50;;;;;;;34.60;10.93;;;;;;;;;;5069241;28;20873;-67
2023/05/26 04:36:16;;;;;;;31.77;10.32;;;;;;;;;;5080094;28;20220;-68
2023/05/26 04:38:42;;;;;;;28.42;10.50;;;;;;;;;;5087678;28;20119;-68
2023/05/26 04:41:07;;;;;;;33.10;10.65;;;;;;;;;;5075330;28;20032;-65
2023/05/26 04:43:35;;;;;;;36.05;11.73;;;;;;;;;;5087738;28;20103;-67
2023/05/26 04:46:03;;;;;;;34.28;12.07;;;;;;;;;;5112802;28;20067;-67
2023/05/26 04:48:28;;;;;;;30.55;11.10;;;;;;;;;;5092679;28;20085;-66
2023/05/26 04:50:54;;;;;;;27.63;9.93;;;;;;;;;;5094174;28;20032;-67
2023/05/26 04:53:20;;;;;;;25.35;10.32;;;;;;;;;;5084520;28;20036;-67
2023/05/26 04:55:47;;;;;;;31.65;10.05;;;;;;;;;;5060124;28;20024;-67
2023/05/26 04:58:12;;;;;;;32.03;10.23;;;;;;;;;;5067296;28;20116;-68
2023/05/26 05:00:37;;;;;;;22.73;10.35;;;;;;;;;;5036967;28;20028;-68
2023/05/26 05:03:03;;;;;;;35.30;9.30;;;;;;;;;;5093579;28;20825;-67
2023/05/26 05:05:29;;;;;;;38.42;10.48;;;;;;;;;;5073403;28;20024;-67
2023/05/26 05:07:54;;;;;;;27.08;11.85;;;;;;;;;;5106692;28;20471;-67
2023/05/26 05:10:19;;;;;;;32.70;11.10;;;;;;;;;;5080956;28;20040;-67
2023/05/26 05:12:46;;;;;;;29.10;10.20;;;;;;;;;;5066471;28;20126;-66
2023/05/26 05:15:11;;;;;;;42.85;11.38;;;;;;;;;;5066361;28;20078;-67
2023/05/26 05:17:37;;;;;;;29.08;10.32;;;;;;;;;;5068209;28;20860;-67
2023/05/26 05:20:02;;;;;;;38.42;11.30;;;;;;;;;;5084583;28;20865;-68
2023/05/26 05:22:27;;;;;;;37.72;11.38;;;;;;;;;;5053455;28;20895;-68
2023/05/26 05:24:53;;;;;;;30.55;11.80;;;;;;;;;;5059551;28;20055;-68
2023/05/26 05:27:18;;;;;;;32.75;12.23;;;;;;;;;;5063811;28;20096;-68
2023/05/26 05:29:43;;;;;;;32.35;11.77;;;;;;;;;;5062357;28;20827;-68
2023/05/26 05:32:09;;;;;;;29.67;11.70;;;;;;;;;;5071078;28;20023;-68
2023/05/26 05:34:34;;;;;;;35.00;13.10;;;;;;;;;;5100665;28;20531;-68
2023/05/26 05:37:00;;;;;;;36.78;12.48;;;;;;;;;;5081086;28;20031;-68
2023/05/26 05:39:25;;;;;;;33.00;13.50;;;;;;;;;;5054703;28;20062;-68
2023/05/26 05:41:52;;;;;;;39.38;13.98;;;;;;;;;;5066187;28;20043;-69
2023/05/26 05:44:17;;;;;;;37.88;13.10;;;;;;;;;;5099055;28;20027;-68
2023/05/26 05:46:42;;;;;;;41.80;15.27;;;;;;;;;;5081905;28;20019;-68
2023/05/26 05:49:07;;;;;;;30.60;14.15;;;;;;;;;;5066435;28;20108;-68
2023/05/26 05:51:33;;;;;;;30.67;14.10;;;;;;;;;;5065059;28;20151;-68
2023/05/26 05:53:58;;;;;;;31.10;14.63;;;;;;;;;;5072496;28;20890;-68
2023/05/26 05:56:23;;;;;;;28.50;13.95;;;;;;;;;;5067939;28;20035;-68
2023/05/26 05:58:48;;;;;;;30.55;14.55;;;;;;;;;;5088650;28;20488;-68
2023/05/26 06:01:15;;;;;;;31.70;13.50;;;;;;;;;;5078771;28;20033;-68
2023/05/26 06:03:40;;;;;;;36.50;16.25;;;;;;;;;;5100826;28;20023;-68
2023/05/26 06:06:06;;;;;;;42.20;16.73;;;;;;;;;;5051808;28;20020;-66
2023/05/26 06:08:31;;;;;;;34.53;15.02;;;;;;;;;;5066734;28;20136;-67
2023/05/26 06:10:56;;;;;;;38.80;14.88;;;;;;;;;;5065816;28;20825;-68
2023/05/26 06:13:21;;;;;;;33.17;15.07;;;;;;;;;;5062537;28;20027;-68
2023/05/26 06:15:47;;;;;;;35.35;15.30;;;;;;;;;;5071307;28;20011;-67
2023/05/26 06:18:12;;;;;;;37.20;15.55;;;;;;;;;;5055555;28;20089;-67
2023/05/26 06:20:37;;;;;;;33.08;15.40;;;;;;;;;;5062956;28;20912;-68
2023/05/26 06:23:03;;;;;;;40.03;16.95;;;;;;;;;;5066178;28;20085;-68
2023/05/26 06:25:28;;;;;;;33.22;16.63;;;;;;;;;;5066029;28;20027;-68
2023/05/26 06:27:54;;;;;;;36.67;16.85;;;;;;;;;;5064862;28;20954;-68
2023/05/26 06:30:20;;;;;;;31.50;16.35;;;;;;;;;;5063211;28;20454;-68
2023/05/26 06:32:45;;;;;;;36.45;17.73;;;;;;;;;;5062531;28;20032;-68
2023/05/26 06:35:10;;;;;;;33.15;16.60;;;;;;;;;;5076569;28;20024;-67
2023/05/26 06:37:35;;;;;;;34.25;14.30;;;;;;;;;;5097688;28;20374;-68
2023/05/26 06:40:01;;;;;;;31.58;13.40;;;;;;;;;;5096095;28;20505;-68
2023/05/26 06:42:26;;;;;;;42.92;17.63;;;;;;;;;;5095950;28;20024;-68
2023/05/26 06:44:52;;;;;;;52.05;16.75;;;;;;;;;;5105938;28;20463;-68
2023/05/26 06:47:22;;;;;;;39.28;18.27;;;;;;;;;;5088365;28;20813;-68
2023/05/26 06:49:48;;;;;;;32.75;15.40;;;;;;;;;;5091642;28;20176;-68
2023/05/26 06:52:13;;;;;;;47.05;16.77;;;;;;;;;;5086000;28;20107;-68
2023/05/26 06:54:38;;;;;;;33.38;16.17;;;;;;;;;;5096582;28;20051;-68
2023/05/26 06:57:04;;;;;;;40.85;16.88;;;;;;;;;;5100528;28;20076;-70
2023/05/26 06:59:29;;;;;;;40.10;17.55;;;;;;;;;;5105108;28;20036;-68
2023/05/26 07:01:55;;;;;;;37.78;15.88;;;;;;;;;;5089686;28;20054;-69
2023/05/26 07:04:20;;;;;;;35.20;16.25;;;;;;;;;;5093723;28;20039;-68
2023/05/26 07:06:45;;;;;;;47.65;15.07;;;;;;;;;;5090205;28;20035;-68
2023/05/26 07:09:11;;;;;;;30.60;15.27;;;;;;;;;;5106322;28;20593;-68
2023/05/26 07:11:36;;;;;;;34.55;15.30;;;;;;;;;;5110862;28;20020;-68
2023/05/26 07:14:01;;;;;;;30.67;15.60;;;;;;;;;;5110531;28;20038;-68
2023/05/26 07:16:27;;;;;;;32.35;15.85;;;;;;;;;;5110477;28;20027;-69
2023/05/26 07:18:52;;;;;;;33.63;17.40;;;;;;;;;;5110090;28;21088;-68
2023/05/26 07:21:19;;;;;;;30.08;15.50;;;;;;;;;;5110516;28;20035;-69
2023/05/26 07:23:44;;;;;;;35.35;15.05;;;;;;;;;;5091966;28;20062;-68
2023/05/26 07:26:10;;;;;;;33.75;13.82;;;;;;;;;;5109298;28;20075;-68
2023/05/26 07:28:35;;;;;;;51.10;15.43;;;;;;;;;;5110101;28;20020;-68
2023/05/26 07:31:01;;;;;;;34.58;13.80;;;;;;;;;;5068939;28;20020;-67
2023/05/26 07:33:26;;;;;;;35.08;14.85;;;;;;;;;;5059139;28;20032;-67
2023/05/26 07:35:51;;;;;;;39.95;14.90;;;;;;;;;;5063591;28;20026;-67
2023/05/26 07:38:17;;;;;;;22.70;11.65;;;;;;;;;;5063390;28;20864;-68
2023/05/26 07:40:44;;;;;;;24.60;13.30;;;;;;;;;;5051863;28;20032;-67
2023/05/26 07:43:11;;;;;;;33.60;13.82;;;;;;;;;;5050472;28;20024;-68
2023/05/26 07:45:36;;;;;;;24.80;12.32;;;;;;;;;;5067776;28;20035;-68
2023/05/26 07:48:01;;;;;;;27.85;12.95;;;;;;;;;;5103052;28;20016;-68
2023/05/26 07:50:27;;;;;;;31.33;12.38;;;;;;;;;;5101246;28;20476;-68
2023/05/26 07:52:52;;;;;;;29.17;13.07;;;;;;;;;;5096240;28;20117;-68
2023/05/26 07:55:17;;;;;;;36.03;12.63;;;;;;;;;;5101052;28;20020;-67
2023/05/26 07:57:42;;;;;;;35.53;10.45;;;;;;;;;;5095990;28;20364;-67
2023/05/26 08:00:08;;;;;;;24.02;11.70;;;;;;;;;;5095158;28;20024;-68
2023/05/26 08:02:35;;;;;;;34.45;12.82;;;;;;;;;;5107144;28;20070;-68
2023/05/26 08:05:00;;;;;;;29.20;11.93;;;;;;;;;;5099003;28;20032;-69
2023/05/26 08:07:25;;;;;;;29.52;13.20;;;;;;;;;;5094745;28;20035;-68
2023/05/26 08:09:52;;;;;;;29.75;13.07;;;;;;;;;;5109314;28;20077;-68
2023/05/26 08:12:17;;;;;;;27.20;12.32;;;;;;;;;;5109928;28;20363;-69
2023/05/26 08:14:42;;;;;;;32.53;11.32;;;;;;;;;;5091445;28;20046;-69
2023/05/26 08:17:08;;;;;;;28.15;11.85;;;;;;;;;;5109218;28;20023;-68
2023/05/26 08:19:33;;;;;;;30.92;11.52;;;;;;;;;;5099658;28;20035;-68
2023/05/26 08:21:58;;;;;;;29.42;11.60;;;;;;;;;;5090867;28;20031;-68
2023/05/26 08:24:25;;;;;;;26.17;11.82;;;;;;;;;;5089977;28;20028;-69
2023/05/26 08:26:50;;;;;;;29.27;12.05;;;;;;;;;;5091262;28;20077;-68
2023/05/26 08:29:15;;;;;;;27.65;11.48;;;;;;;;;;5090513;28;20470;-68
2023/05/26 08:31:41;;;;;;;32.58;10.85;;;;;;;;;;5092133;28;20020;-69
2023/05/26 08:34:06;;;;;;;34.45;13.57;;;;;;;;;;5091178;28;20028;-68
2023/05/26 08:36:32;;;;;;;31.25;12.35;;;;;;;;;;5105530;28;20355;-69
2023/05/26 08:38:57;;;;;;;24.10;10.77;;;;;;;;;;5094480;28;20097;-69
2023/05/26 08:41:23;;;;;;;29.60;12.05;;;;;;;;;;5085358;28;20057;-69
2023/05/26 08:43:55;;;;;;;27.23;12.75;;;;;;;;;;5102866;28;20073;-68
2023/05/26 08:46:21;;;;;;;29.00;12.30;;;;;;;;;;5098740;28;20040;-69
2023/05/26 08:48:47;;;;;;;29.60;11.18;;;;;;;;;;5097009;28;20016;-68
2023/05/26 08:51:12;;;;;;;24.80;11.60;;;;;;;;;;5102673;28;20047;-68
2023/05/26 08:53:40;;;;;;;30.02;12.35;;;;;;;;;;5101462;28;20419;-66
2023/05/26 08:56:06;;;;;;;27.15;10.68;;;;;;;;;;5107608;28;20554;-68
2023/05/26 08:58:33;;;;;;;18.45;8.43;;;;;;;;;;5098400;28;20028;-68
2023/05/26 09:00:59;;;;;;;21.63;10.95;;;;;;;;;;5093338;28;20028;-68
2023/05/26 09:03:24;;;;;;;28.85;10.73;;;;;;;;;;5104788;28;20536;-65
2023/05/26 09:05:50;;;;;;;28.73;11.05;;;;;;;;;;5083446;28;20038;-69
2023/05/26 09:08:15;;;;;;;24.75;10.00;;;;;;;;;;5067395;28;20024;-68
2023/05/26 09:10:41;;;;;;;24.98;12.00;;;;;;;;;;5048284;28;20028;-68
2023/05/26 09:13:10;;;;;;;39.00;10.95;;;;;;;;;;5057450;28;20053;-68
2023/05/26 09:15:36;;;;;;;24.45;9.57;;;;;;;;;;5066325;28;20112;-69
2023/05/26 09:18:03;;;;;;;28.35;9.35;;;;;;;;;;5063376;28;20033;-68
2023/05/26 09:20:28;;;;;;;20.05;10.45;;;;;;;;;;5065305;28;20027;-69
2023/05/26 09:22:56;;;;;;;24.08;9.13;;;;;;;;;;5061305;28;20820;-69
2023/05/26 09:25:23;;;;;;;24.80;9.90;;;;;;;;;;5066720;28;20032;-68
2023/05/26 09:27:48;;;;;;;26.42;10.23;;;;;;;;;;5065497;28;20081;-67
2023/05/26 09:30:13;;;;;;;36.70;11.02;;;;;;;;;;5077795;28;20028;-67
2023/05/26 09:32:39;;;;;;;25.00;10.57;;;;;;;;;;5109689;28;20486;-69
2023/05/26 09:35:05;;;;;;;28.02;11.18;;;;;;;;;;5095114;28;20032;-68
2023/05/26 09:37:31;;;;;;;21.90;11.02;;;;;;;;;;5093797;28;20028;-68
2023/05/26 09:40:09;;;;;;;23.27;10.05;;;;;;;;;;5098630;28;20428;-69
2023/05/26 09:42:38;;;;;;;33.85;11.60;;;;;;;;;;5101788;28;20106;-69
2023/05/26 09:45:03;;;;;;;28.58;10.93;;;;;;;;;;5097260;28;20478;-69
2023/05/26 09:47:35;;;;;;;22.35;10.52;;;;;;;;;;5103300;28;20073;-68
2023/05/26 09:50:06;;;;;;;21.40;9.75;;;;;;;;;;5102042;28;20080;-69
2023/05/26 09:52:35;;;;;;;19.58;9.93;;;;;;;;;;5101122;28;20023;-69
2023/05/26 09:55:01;;;;;;;20.25;10.07;;;;;;;;;;5107185;28;20027;-68
2023/05/26 09:57:27;;;;;;;17.88;9.05;;;;;;;;;;5099949;28;20387;-69
2023/05/26 09:59:55;;;;;;;22.67;10.38;;;;;;;;;;5096958;28;20024;-68
2023/05/26 10:02:22;;;;;;;27.65;10.90;;;;;;;;;;5111866;28;20055;-68
2023/05/26 10:04:50;;;;;;;28.27;11.10;;;;;;;;;;5102083;28;20044;-68
2023/05/26 10:07:16;;;;;;;26.80;11.05;;;;;;;;;;5092529;28;20027;-68
2023/05/26 10:09:42;;;;;;;21.52;10.13;;;;;;;;;;5091957;28;20047;-68
2023/05/26 10:12:09;;;;;;;33.67;10.40;;;;;;;;;;5091100;28;20447;-68
2023/05/26 10:14:35;;;;;;;27.08;10.82;;;;;;;;;;5091649;28;20049;-67
2023/05/26 10:17:04;;;;;;;24.88;10.55;;;;;;;;;;5108454;28;20024;-68
2023/05/26 10:19:30;;;;;;;21.55;10.75;;;;;;;;;;5112004;28;20027;-69
2023/05/26 10:21:57;;;;;;;26.25;10.65;;;;;;;;;;5110690;28;20027;-68
2023/05/26 10:24:28;;;;;;;30.90;10.18;;;;;;;;;;5109297;28;20035;-68
2023/05/26 10:26:58;;;;;;;29.92;10.40;;;;;;;;;;5090084;28;20031;-68
2023/05/26 10:29:36;;;;;;;25.88;10.32;;;;;;;;;;5071056;28;20067;-68
2023/05/26 10:32:03;;;;;;;23.45;10.85;;;;;;;;;;5109169;28;20036;-68
2023/05/26 10:34:38;;;;;;;26.52;11.32;;;;;;;;;;5110292;28;20016;-67
2023/05/26 10:37:12;;;;;;;23.70;10.57;;;;;;;;;;5110049;28;20045;-68
2023/05/26 10:39:37;;;;;;;21.67;10.65;;;;;;;;;;5109951;28;20019;-69
2023/05/26 10:42:14;;;;;;;32.75;11.48;;;;;;;;;;5109064;28;20030;-68
2023/05/26 10:44:40;;;;;;;25.15;10.35;;;;;;;;;;5093762;28;20056;-68
2023/05/26 10:47:05;;;;;;;19.88;10.40;;;;;;;;;;5095591;28;20057;-68
2023/05/26 10:49:35;;;;;;;25.75;10.27;;;;;;;;;;5102390;28;20045;-68
2023/05/26 10:52:09;;;;;;;21.15;10.60;;;;;;;;;;5095238;28;20016;-68
2023/05/26 10:54:34;;;;;;;23.83;11.20;;;;;;;;;;5092386;28;20039;-69
2023/05/26 10:56:59;;;;;;;22.17;10.05;;;;;;;;;;5093801;28;20459;-69
2023/05/26 10:59:31;;;;;;;25.05;10.35;;;;;;;;;;5091447;28;20067;-68
2023/05/26 11:02:00;;;;;;;25.15;10.88;;;;;;;;;;5100373;28;20034;-68
2023/05/26 11:04:39;;;;;;;29.55;11.38;;;;;;;;;;5091454;28;20079;-67
2023/05/26 11:07:04;;;;;;;27.85;10.35;;;;;;;;;;5096873;28;20482;-68
2023/05/26 11:09:31;;;;;;;29.00;11.07;;;;;;;;;;5109491;28;20070;-68
2023/05/26 11:11:57;;;;;;;24.55;10.95;;;;;;;;;;5106414;28;20031;-67
2023/05/26 11:14:23;;;;;;;31.02;10.50;;;;;;;;;;5082092;28;20042;-68
2023/05/26 11:16:49;;;;;;;23.40;10.00;;;;;;;;;;5108058;28;20359;-68
2023/05/26 11:19:15;;;;;;;25.02;10.02;;;;;;;;;;5096880;28;20433;-68
2023/05/26 11:21:40;;;;;;;21.67;10.40;;;;;;;;;;5090847;28;20035;-69
2023/05/26 11:24:06;;;;;;;21.08;9.68;;;;;;;;;;5098916;28;20028;-69
2023/05/26 11:26:32;;;;;;;24.75;10.63;;;;;;;;;;5110806;28;20574;-68
2023/05/26 11:29:00;;;;;;;21.42;9.35;;;;;;;;;;5099556;28;20076;-68
2023/05/26 11:31:28;;;;;;;23.33;9.30;;;;;;;;;;5100516;28;20028;-68
2023/05/26 11:33:54;;;;;;;21.13;9.82;;;;;;;;;;5095731;28;20020;-68
2023/05/26 11:36:19;;;;;;;26.48;10.25;;;;;;;;;;5093088;28;20020;-68
2023/05/26 11:38:46;;;;;;;21.42;10.30;;;;;;;;;;5095573;28;20024;-67
2023/05/26 11:41:12;;;;;;;22.02;9.82;;;;;;;;;;5095925;28;20028;-67
2023/05/26 11:43:38;;;;;;;23.55;11.02;;;;;;;;;;5091492;28;20027;-68
2023/05/26 11:46:05;;;;;;;32.83;11.45;;;;;;;;;;5089817;28;20035;-67
2023/05/26 11:48:35;;;;;;;30.00;10.38;;;;;;;;;;5105949;28;20027;-68
2023/05/26 11:51:10;;;;;;;24.45;9.82;;;;;;;;;;5103740;28;20020;-68
2023/05/26 11:53:36;;;;;;;12.27;8.60;;;;;;;;;;5109606;28;20028;-68
2023/05/26 11:56:03;;;;;;;25.80;10.25;;;;;;;;;;5102196;28;20016;-68
2023/05/26 11:58:28;;;;;;;23.38;9.02;;;;;;;;;;5097320;28;20028;-68
2023/05/26 12:00:57;;;;;;;16.02;10.27;;;;;;;;;;5104125;28;20089;-68
2023/05/26 12:03:23;;;;;;;16.65;9.65;;;;;;;;;;5110427;28;20444;-68
2023/05/26 12:05:48;;;;;;;24.63;9.43;;;;;;;;;;5107629;28;20103;-68
2023/05/26 12:08:14;;;;;;;21.27;10.27;;;;;;;;;;5106533;28;20028;-68
2023/05/26 12:10:40;;;;;;;24.77;9.23;;;;;;;;;;5105254;28;20296;-68
2023/05/26 12:13:06;;;;;;;23.63;10.82;;;;;;;;;;5101379;28;20012;-69
2023/05/26 12:15:31;;;;;;;21.63;9.70;;;;;;;;;;5097037;28;20027;-68
2023/05/26 12:17:57;;;;;;;17.13;9.03;;;;;;;;;;5096601;28;20032;-69
2023/05/26 12:20:23;;;;;;;20.42;10.32;;;;;;;;;;5091859;28;20779;-66
2023/05/26 12:22:50;;;;;;;20.02;9.50;;;;;;;;;;5096600;28;20031;-67
2023/05/26 12:25:22;;;;;;;28.88;9.35;;;;;;;;;;5100753;28;20019;-67
2023/05/26 12:27:47;;;;;;;21.55;9.50;;;;;;;;;;5097064;28;20039;-67
2023/05/26 12:30:17;;;;;;;16.17;8.80;;;;;;;;;;5082020;28;20020;-68
2023/05/26 12:32:43;;;;;;;16.30;8.35;;;;;;;;;;5096426;28;20271;-67
2023/05/26 12:35:08;;;;;;;13.30;7.95;;;;;;;;;;5100289;28;20386;-67
2023/05/26 12:37:33;;;;;;;20.87;8.43;;;;;;;;;;5096817;28;20050;-68
2023/05/26 12:39:59;;;;;;;20.43;8.97;;;;;;;;;;5100721;28;20272;-67
2023/05/26 12:42:24;;;;;;;22.50;8.80;;;;;;;;;;5096331;28;20301;-67
2023/05/26 12:44:50;;;;;;;22.37;7.47;;;;;;;;;;5099223;28;20366;-64
2023/05/26 12:47:15;;;;;;;21.40;7.93;;;;;;;;;;5105169;28;20331;-67
2023/05/26 12:49:40;;;;;;;13.07;8.03;;;;;;;;;;5098690;28;20271;-64
2023/05/26 12:52:05;;;;;;;16.60;8.43;;;;;;;;;;5095608;28;20289;-68
2023/05/26 12:54:31;;;;;;;17.37;8.17;;;;;;;;;;5107143;28;20073;-67
2023/05/26 12:56:56;;;;;;;15.27;8.27;;;;;;;;;;5094858;28;20282;-68
2023/05/26 12:59:21;;;;;;;18.87;7.67;;;;;;;;;;5100306;28;20023;-67
2023/05/26 13:01:47;;;;;;;19.52;8.15;;;;;;;;;;5097620;28;20301;-67
2023/05/26 13:04:12;;;;;;;21.83;7.93;;;;;;;;;;5092831;28;20480;-66
2023/05/26 13:06:37;;;;;;;24.13;7.18;;;;;;;;;;5092414;28;20056;-65
2023/05/26 13:09:03;;;;;;;13.93;7.65;;;;;;;;;;5100754;28;20470;-64
2023/05/26 13:11:29;;;;;;;21.58;7.60;;;;;;;;;;5096483;28;20031;-67
2023/05/26 13:13:54;;;;;;;18.05;8.40;;;;;;;;;;5105422;28;20032;-65
2023/05/26 13:16:20;;;;;;;16.85;8.25;;;;;;;;;;5095158;28;20067;-64
2023/05/26 13:18:45;;;;;;;19.27;8.73;;;;;;;;;;5095644;28;20038;-63
2023/05/26 13:21:10;;;;;;;17.58;8.05;;;;;;;;;;5095407;28;20028;-63
2023/05/26 13:23:36;;;;;;;16.42;7.80;;;;;;;;;;5095700;28;20024;-67
2023/05/26 13:26:04;;;;;;;18.73;6.97;;;;;;;;;;5093895;28;20048;-67
2023/05/26 13:28:29;;;;;;;15.05;6.75;;;;;;;;;;5095013;28;20028;-68
2023/05/26 13:30:55;;;;;;;12.40;6.30;;;;;;;;;;5094290;28;20080;-65
2023/05/26 13:33:20;;;;;;;15.93;7.20;;;;;;;;;;5067471;28;20032;-66
2023/05/26 13:35:46;;;;;;;12.00;6.00;;;;;;;;;;5064041;28;20041;-67
2023/05/26 13:38:11;;;;;;;18.70;7.32;;;;;;;;;;5080501;28;20043;-67
2023/05/26 13:40:36;;;;;;;16.30;6.85;;;;;;;;;;5067264;28;20531;-69
2023/05/26 13:43:01;;;;;;;12.98;6.90;;;;;;;;;;5082091;28;20020;-68
2023/05/26 13:45:27;;;;;;;12.50;5.95;;;;;;;;;;5093488;28;20546;-66
2023/05/26 13:47:53;;;;;;;14.57;6.60;;;;;;;;;;5073030;28;20031;-67
2023/05/26 13:50:18;;;;;;;15.73;6.60;;;;;;;;;;5088687;28;20023;-67
2023/05/26 13:52:43;;;;;;;14.07;6.00;;;;;;;;;;5084744;28;20285;-66
2023/05/26 13:55:09;;;;;;;13.63;6.43;;;;;;;;;;5066976;28;20082;-66
2023/05/26 13:57:34;;;;;;;20.55;6.82;;;;;;;;;;5081121;28;20453;-67
2023/05/26 13:59:59;;;;;;;23.48;6.28;;;;;;;;;;5089837;28;20016;-65
2023/05/26 14:02:25;;;;;;;15.02;6.28;;;;;;;;;;5099951;28;20031;-65
2023/05/26 14:04:50;;;;;;;16.88;6.55;;;;;;;;;;5111690;28;20032;-67
2023/05/26 14:07:16;;;;;;;14.43;6.90;;;;;;;;;;5098401;28;20107;-62
2023/05/26 14:09:41;;;;;;;12.32;6.05;;;;;;;;;;5096247;28;20023;-66
2023/05/26 14:12:06;;;;;;;11.88;5.35;;;;;;;;;;5099146;28;20032;-69
2023/05/26 14:14:32;;;;;;;13.00;5.30;;;;;;;;;;5097271;28;20382;-67